地図

経路データ

SID SEASON NUMBER BASIN SUBBASIN NAME ISO_TIME NATURE LAT LON WMO_WIND WMO_PRES WMO_AGENCY TRACK_TYPE DIST2LAND LANDFALL IFLAG USA_AGENCY USA_ATCF_ID USA_LAT USA_LON USA_RECORD USA_STATUS USA_WIND USA_PRES USA_SSHS USA_R34_NE USA_R34_SE USA_R34_SW USA_R34_NW USA_R50_NE USA_R50_SE USA_R50_SW USA_R50_NW USA_R64_NE USA_R64_SE USA_R64_SW USA_R64_NW USA_POCI USA_ROCI USA_RMW USA_EYE TOKYO_LAT TOKYO_LON TOKYO_GRADE TOKYO_WIND TOKYO_PRES TOKYO_R50_DIR TOKYO_R50_LONG TOKYO_R50_SHORT TOKYO_R30_DIR TOKYO_R30_LONG TOKYO_R30_SHORT TOKYO_LAND CMA_LAT CMA_LON CMA_CAT CMA_WIND CMA_PRES HKO_LAT HKO_LON HKO_CAT HKO_WIND HKO_PRES NEWDELHI_LAT NEWDELHI_LON NEWDELHI_GRADE NEWDELHI_WIND NEWDELHI_PRES NEWDELHI_CI NEWDELHI_DP NEWDELHI_POCI REUNION_LAT REUNION_LON REUNION_TYPE REUNION_WIND REUNION_PRES REUNION_TNUM REUNION_CI REUNION_RMW REUNION_R34_NE REUNION_R34_SE REUNION_R34_SW REUNION_R34_NW REUNION_R50_NE REUNION_R50_SE REUNION_R50_SW REUNION_R50_NW REUNION_R64_NE REUNION_R64_SE REUNION_R64_SW REUNION_R64_NW BOM_LAT BOM_LON BOM_TYPE BOM_WIND BOM_PRES BOM_TNUM BOM_CI BOM_RMW BOM_R34_NE BOM_R34_SE BOM_R34_SW BOM_R34_NW BOM_R50_NE BOM_R50_SE BOM_R50_SW BOM_R50_NW BOM_R64_NE BOM_R64_SE BOM_R64_SW BOM_R64_NW BOM_ROCI BOM_POCI BOM_EYE BOM_POS_METHOD BOM_PRES_METHOD NADI_LAT NADI_LON NADI_CAT NADI_WIND NADI_PRES WELLINGTON_LAT WELLINGTON_LON WELLINGTON_WIND WELLINGTON_PRES DS824_LAT DS824_LON DS824_STAGE DS824_WIND DS824_PRES TD9636_LAT TD9636_LON TD9636_STAGE TD9636_WIND TD9636_PRES TD9635_LAT TD9635_LON TD9635_WIND TD9635_PRES TD9635_ROCI NEUMANN_LAT NEUMANN_LON NEUMANN_CLASS NEUMANN_WIND NEUMANN_PRES MLC_LAT MLC_LON MLC_CLASS MLC_WIND MLC_PRES USA_GUST BOM_GUST BOM_GUST_PER REUNION_GUST REUNION_GUST_PER USA_SEAHGT USA_SEARAD_NE USA_SEARAD_SE USA_SEARAD_SW USA_SEARAD_NW STORM_SPEED STORM_DIR
1858325S25052 1859 21 SI MM NOT_NAMED 1858-11-21 06:00:00 NR -25.3000 52.2000 reunion main 496 496 _____O________ -1 -25.3000 52.2000 99 9.90000 2 132
1858325S25052 1859 21 SI MM NOT_NAMED 1858-11-21 09:00:00 NR -25.3798 52.2979 main 509 509 _____P________ -1 -25.3798 52.2979 99 2 132
1858325S25052 1859 21 SI MM NOT_NAMED 1858-11-21 12:00:00 NR -25.4639 52.4020 main 522 522 _____P________ -1 -25.4639 52.4020 99 3 132
1858325S25052 1859 21 SI MM NOT_NAMED 1858-11-21 15:00:00 NR -25.5566 52.5183 main 535 535 _____P________ -1 -25.5566 52.5183 99 3 131
1858325S25052 1859 21 SI MM NOT_NAMED 1858-11-21 18:00:00 NR -25.6623 52.6529 main 557 553 _____P________ -1 -25.6623 52.6529 99 4 131
1858325S25052 1859 21 SI MM NOT_NAMED 1858-11-21 21:00:00 NR -25.7852 52.8121 main 563 559 _____P________ -1 -25.7852 52.8121 99 4 130
1858325S25052 1859 21 SI MM NOT_NAMED 1858-11-22 00:00:00 NR -25.9296 53.0021 main 564 564 _____P________ -1 -25.9296 53.0021 99 5 130
1858325S25052 1859 21 SI MM NOT_NAMED 1858-11-22 03:00:00 NR -26.0999 53.2293 main 577 573 _____P________ -1 -26.0999 53.2293 99 6 130
1858325S25052 1859 21 SI MM NOT_NAMED 1858-11-22 06:00:00 NR -26.3000 53.5000 reunion main 587 584 _____O________ -1 -26.3000 53.5000 99 9.90000 7 129
1858325S25052 1859 21 SI MM NOT_NAMED 1858-11-22 09:00:00 NR -26.5320 53.8180 main 598 598 _____P________ -1 -26.5320 53.8180 99 8 129
1858325S25052 1859 21 SI MM NOT_NAMED 1858-11-22 12:00:00 NR -26.7895 54.1752 main 619 617 _____P________ -1 -26.7895 54.1752 99 9 129
1858325S25052 1859 21 SI MM NOT_NAMED 1858-11-22 15:00:00 NR -27.0640 54.5605 main 644 643 _____P________ -1 -27.0640 54.5605 99 9 129
1858325S25052 1859 21 SI MM NOT_NAMED 1858-11-22 18:00:00 NR -27.3469 54.9623 main 662 662 _____P________ -1 -27.3469 54.9623 99 9 128
1858325S25052 1859 21 SI MM NOT_NAMED 1858-11-22 21:00:00 NR -27.6301 55.3691 main 693 693 _____P________ -1 -27.6301 55.3691 99 9 128
1858325S25052 1859 21 SI MM NOT_NAMED 1858-11-23 00:00:00 NR -27.9053 55.7691 main 726 726 _____P________ -1 -27.9053 55.7691 99 9 128
1858325S25052 1859 21 SI MM NOT_NAMED 1858-11-23 03:00:00 NR -28.1646 56.1502 main 762 762 _____P________ -1 -28.1646 56.1502 99 8 128
1858325S25052 1859 21 SI MM NOT_NAMED 1858-11-23 06:00:00 NR -28.4000 56.5000 reunion main 787 787 _____O________ -1 -28.4000 56.5000 99 9.90000 7 127
1858325S25052 1859 21 SI MM NOT_NAMED 1858-11-23 09:00:00 NR -28.5845 56.7790 main 813 813 _____P________ -1 -28.5845 56.7790 99 6 127
1858325S25052 1859 21 SI MM NOT_NAMED 1858-11-23 12:00:00 NR -28.7486 57.0303 main 827 827 _____P________ -1 -28.7486 57.0303 99 5 127
1858325S25052 1859 21 SI MM NOT_NAMED 1858-11-23 15:00:00 NR -28.8959 57.2582 main 855 855 _____P________ -1 -28.8959 57.2582 99 5 126
1858325S25052 1859 21 SI MM NOT_NAMED 1858-11-23 18:00:00 NR -29.0297 57.4670 main 870 870 _____P________ -1 -29.0297 57.4670 99 4 126
1858325S25052 1859 21 SI MM NOT_NAMED 1858-11-23 21:00:00 NR -29.1536 57.6611 main 896 896 _____P________ -1 -29.1536 57.6611 99 4 126
1858325S25052 1859 21 SI MM NOT_NAMED 1858-11-24 00:00:00 NR -29.2711 57.8450 main 909 909 _____P________ -1 -29.2711 57.8450 99 4 126
1858325S25052 1859 21 SI MM NOT_NAMED 1858-11-24 03:00:00 NR -29.3854 58.0231 main 925 925 _____P________ -1 -29.3854 58.0231 99 4 127
1858325S25052 1859 21 SI MM NOT_NAMED 1858-11-24 06:00:00 NR -29.5000 58.2000 reunion main 941 941 _____O________ -1 -29.5000 58.2000 99 9.90000 4 127
1858325S25052 1859 21 SI MM NOT_NAMED 1858-11-24 09:00:00 NR -29.6312 58.3954 main 958 958 _____P________ -1 -29.6312 58.3954 99 4 128
1858325S25052 1859 21 SI MM NOT_NAMED 1858-11-24 12:00:00 NR -29.7606 58.5861 main 985 985 _____P________ -1 -29.7606 58.5861 99 4 128
1858325S25052 1859 21 SI MM NOT_NAMED 1858-11-24 15:00:00 NR -29.8883 58.7735 main 1002 1002 _____P________ -1 -29.8883 58.7735 99 4 128
1858325S25052 1859 21 SI MM NOT_NAMED 1858-11-24 18:00:00 NR -30.0142 58.9586 main 1019 1019 _____P________ -1 -30.0142 58.9586 99 4 128
1858325S25052 1859 21 SI MM NOT_NAMED 1858-11-24 21:00:00 NR -30.1383 59.1426 main 1032 1032 _____P________ -1 -30.1383 59.1426 99 4 128
1858325S25052 1859 21 SI MM NOT_NAMED 1858-11-25 00:00:00 NR -30.2607 59.3267 main 1060 1060 _____P________ -1 -30.2607 59.3267 99 4 127
1858325S25052 1859 21 SI MM NOT_NAMED 1858-11-25 03:00:00 NR -30.3812 59.5121 main 1078 1078 _____P________ -1 -30.3812 59.5121 99 4 127
1858325S25052 1859 21 SI MM NOT_NAMED 1858-11-25 06:00:00 NR -30.5000 59.7000 reunion main 1095 1095 _____O________ -1 -30.5000 59.7000 99 9.90000 4 126
1858325S25052 1859 21 SI MM NOT_NAMED 1858-11-25 09:00:00 NR -30.6170 59.8913 main 1113 1113 _____P________ -1 -30.6170 59.8913 99 4 125
1858325S25052 1859 21 SI MM NOT_NAMED 1858-11-25 12:00:00 NR -30.7323 60.0859 main 1131 1131 _____P________ -1 -30.7323 60.0859 99 4 124
1858325S25052 1859 21 SI MM NOT_NAMED 1858-11-25 15:00:00 NR -30.8462 60.2834 main 1149 1149 _____P________ -1 -30.8462 60.2834 99 4 124
1858325S25052 1859 21 SI MM NOT_NAMED 1858-11-25 18:00:00 NR -30.9588 60.4833 main 1177 1177 _____P________ -1 -30.9588 60.4833 99 4 123
1858325S25052 1859 21 SI MM NOT_NAMED 1858-11-25 21:00:00 NR -31.0702 60.6854 main 1196 1196 _____P________ -1 -31.0702 60.6854 99 4 123
1858325S25052 1859 21 SI MM NOT_NAMED 1858-11-26 00:00:00 NR -31.1808 60.8891 main 1214 1214 _____P________ -1 -31.1808 60.8891 99 4 122
1858325S25052 1859 21 SI MM NOT_NAMED 1858-11-26 03:00:00 NR -31.2907 61.0941 main 1233 1233 _____P________ -1 -31.2907 61.0941 99 4 122
1858325S25052 1859 21 SI MM NOT_NAMED 1858-11-26 06:00:00 NR -31.4000 61.3000 reunion main 1252 _____O________ -1 -31.4000 61.3000 99 9.90000 4 121

IBTrACS Databaseについて

本データベースは、米国NOAAが公開する1842年以降の世界の熱帯低気圧のベストトラックデータアーカイブInternational Best Track Archive for Climate Stewardship (IBTrACS)を、ウェブで閲覧しやすい形式に変換したものです。

最終更新日:2021-11-26